Benson, AZ (85602)

11:15 AM MST on September 03, 2015 (GMT -0700)
Silverwood | | Change Station
CLOSE
Current Station
Personal Weather Station
Location: Benson, AZ
Elevation: 3655 ft
Nearby Weather Stations

Elev 3655 ft 31.96 °N, 110.29 °W | Updated 11 seconds ago

Rain
Rain
82.2 °F
Feels Like 84 °F
N
0.9
Wind Variable Wind from WNW
Gusts 2.0 mph

Today
High -- | Low -- °F
--% Chance of Precip.
Yesterday
High -- | Low -- °F
Precip. -- in
5:57 AM 6:42 PM
Waning Gibbous, 68% visible
Pressure 29.89 in
Visibility 10.0 miles
Clouds Few 11000 ft
Heat Index 84 °F
Dew Point 65 °F
Humidity 56%
Rainfall 0.02 in
Snow Depth Not available.
UV 9 out of 12
Pollen .70 out of 12
Air Quality Not available.
Flu Activity Not available.
METAR KALK 031756Z AUTO 06008KT 10SM FEW110 25/16 A3016 RMK AO2 SLP121 60000 T02500156 10250 20178 56011
Pressure 29.89 in
Visibility 10.0 miles
Clouds Few 11000 ft
Heat Index 84 °F
Dew Point 65 °F
Humidity 56%
Rainfall 0.02 in
Snow Depth Not available.
UV 9 out of 12
Pollen .70 out of 12
Air Quality Not available.
Flu Activity Not available.
METAR KALK 031756Z AUTO 06008KT 10SM FEW110 25/16 A3016 RMK AO2 SLP121 60000 T02500156 10250 20178 56011
Nowcast | as of 10:59 am MST on September 3, 2015

Isolated showers and thunderstorms will continue to develop into the afternoon hours. It is expected that shower and thunderstorms coverage will increase throughout this afternoon and this evening. Storms will move toward the north or northeast at 15 to 20 mph. Rainfall amounts over the next two hours will range from 0.10 to 0.50 inches with locally higher amounts possible with the stronger storms. A few wind gusts to 40 mph may also occur.

×

10-Day Weather Forecast

×

Almanac

Astronomy

Sep. 03, 2015 Rise Set
Actual Time
Civil Twilight
Nautical Twilight
Astronomical Twilight
Moon
Length of Visible Light
Length of Day
Tomorrow will be .
, % of the Moon is Illuminated

Today's Extremes

State Highs State Lows

Community

WunderPhotos

Upload Photos

1,851,994 photos uploaded!

WunderBlogs® & News

Nearby

Air Quality

  Air Quality AQ Index Pollutant
Not available.

Snow Depth

Station Depth Elevation

Earthquake Activity

City Distance Mag. Time & Date
Minimum magnitude displayed is 2.5.

Coastal Water Temperatures

Place Temperature

Stations

Nearby Weather Stations

Station Location Temp. Windchill Dew Point Humidity Wind Precip. Elev Updated Type